Time;durP1;ratioP1;P1;durP2;ratioP2;P2;SDS_P1;SDS_P2;PMS_P1;PMS_P2;Temp;Humidity;BMP_temperature;BMP_pressure;BME280_temperature;BME280_humidity;BME280_pressure;Samples;Min_cycle;Max_cycle;Signal;HPM_P1;HPM_P2
2023/09/16 00:00:45;;;;;;;7.53;2.60;;;15.40;73.00;;;;;;4849893;29;20506;-91
2023/09/16 00:03:12;;;;;;;6.10;2.60;;;15.40;73.10;;;;;;4866221;29;20041;-91
2023/09/16 00:05:42;;;;;;;7.65;2.80;;;15.30;73.20;;;;;;4851569;29;20496;-90
2023/09/16 00:08:09;;;;;;;7.25;2.30;;;15.30;73.30;;;;;;4868439;29;20045;-91
2023/09/16 00:10:37;;;;;;;6.00;2.57;;;15.30;73.30;;;;;;4864585;29;20462;-91
2023/09/16 00:13:04;;;;;;;5.60;2.90;;;15.20;73.40;;;;;;4882213;29;20056;-91
2023/09/16 00:15:31;;;;;;;9.48;2.60;;;15.20;73.50;;;;;;4868115;29;20048;-91
2023/09/16 00:17:58;;;;;;;7.32;2.58;;;15.10;73.70;;;;;;4868629;29;20087;-90
2023/09/16 00:20:26;;;;;;;5.28;2.20;;;15.10;73.70;;;;;;4868116;29;20041;-91
2023/09/16 00:22:53;;;;;;;5.27;2.20;;;15.20;73.80;;;;;;4872213;29;20141;-91
2023/09/16 00:25:21;;;;;;;5.57;2.42;;;15.10;73.90;;;;;;4864954;29;20057;-91
2023/09/16 00:27:48;;;;;;;5.47;2.60;;;15.10;73.90;;;;;;4864619;29;20060;-91
2023/09/16 00:30:15;;;;;;;7.68;2.58;;;15.00;73.90;;;;;;4858604;29;20052;-91
2023/09/16 00:32:43;;;;;;;6.57;2.70;;;15.10;73.90;;;;;;4862099;29;20053;-91
2023/09/16 00:35:13;;;;;;;7.30;2.70;;;15.00;74.00;;;;;;4861886;29;20045;-91
2023/09/16 00:37:43;;;;;;;6.25;2.40;;;15.00;74.00;;;;;;4879174;29;20507;-91
2023/09/16 00:40:10;;;;;;;7.53;2.60;;;15.00;74.00;;;;;;4890214;29;20041;-91
2023/09/16 00:42:38;;;;;;;7.25;2.47;;;15.00;74.10;;;;;;4868069;29;20140;-91
2023/09/16 00:45:08;;;;;;;5.90;2.30;;;15.00;74.40;;;;;;4883045;29;20054;-91
2023/09/16 00:47:36;;;;;;;7.37;2.40;;;15.00;74.30;;;;;;4882991;29;20157;-91
2023/09/16 00:50:05;;;;;;;7.28;2.60;;;14.90;74.60;;;;;;4867529;29;20044;-90
2023/09/16 00:52:37;;;;;;;6.97;2.50;;;14.90;74.70;;;;;;4867976;29;20048;-91
2023/09/16 00:55:05;;;;;;;6.60;2.45;;;14.90;74.60;;;;;;4866993;29;20147;-91
2023/09/16 00:57:32;;;;;;;6.57;2.53;;;14.80;74.70;;;;;;4869732;29;20056;-91
2023/09/16 00:59:59;;;;;;;4.97;2.07;;;14.80;74.70;;;;;;4864474;29;20100;-91
2023/09/16 01:02:27;;;;;;;7.57;2.40;;;14.80;74.80;;;;;;4879594;29;20049;-92
2023/09/16 01:04:56;;;;;;;6.72;2.78;;;14.80;75.00;;;;;;4880989;29;20052;-91
2023/09/16 01:07:24;;;;;;;6.70;2.78;;;14.80;74.90;;;;;;4864438;29;20136;-91
2023/09/16 01:09:51;;;;;;;7.30;2.63;;;14.80;74.90;;;;;;4864577;29;20049;-92
2023/09/16 01:12:19;;;;;;;7.90;2.60;;;14.80;74.90;;;;;;4864119;29;20089;-91
2023/09/16 01:14:46;;;;;;;6.15;2.30;;;14.80;74.90;;;;;;4877755;29;20063;-92
2023/09/16 01:17:32;;;;;;;6.57;2.55;;;14.70;75.00;;;;;;4882473;29;20077;-91
2023/09/16 01:20:10;;;;;;;7.15;2.60;;;14.70;75.20;;;;;;4867607;29;20057;-91
2023/09/16 01:22:44;;;;;;;6.65;2.90;;;14.60;75.40;;;;;;4856926;29;20463;-91
2023/09/16 01:25:14;;;;;;;7.43;2.80;;;14.60;75.50;;;;;;4870495;29;20118;-91
2023/09/16 01:27:42;;;;;;;7.03;2.88;;;14.50;75.60;;;;;;4869568;29;20045;-90
2023/09/16 01:30:10;;;;;;;7.22;3.13;;;14.50;75.80;;;;;;4866870;29;20140;-91
2023/09/16 01:33:18;;;;;;;6.40;2.92;;;14.50;76.00;;;;;;4863804;29;20821;-91
2023/09/16 01:35:48;;;;;;;7.85;3.30;;;14.50;76.00;;;;;;4808373;29;20103;-91
2023/09/16 01:38:21;;;;;;;7.27;3.17;;;14.50;76.10;;;;;;4875993;29;20045;-91
2023/09/16 01:40:51;;;;;;;8.57;3.25;;;14.50;76.30;;;;;;4861546;29;20069;-91
2023/09/16 01:43:19;;;;;;;8.77;3.08;;;14.40;76.30;;;;;;4879195;29;20048;-90
2023/09/16 01:45:46;;;;;;;7.15;3.10;;;14.30;76.40;;;;;;4866769;29;20045;-91
2023/09/16 01:48:16;;;;;;;7.03;3.10;;;14.40;76.50;;;;;;4865583;29;20113;-90
2023/09/16 01:50:44;;;;;;;6.70;3.17;;;14.30;76.50;;;;;;4877204;29;20049;-91
2023/09/16 01:53:11;;;;;;;6.60;2.92;;;14.20;76.60;;;;;;4866478;29;20051;-91
2023/09/16 01:55:42;;;;;;;7.60;3.13;;;14.20;76.90;;;;;;4883014;29;20049;-90
2023/09/16 01:58:09;;;;;;;7.10;3.13;;;14.20;76.80;;;;;;4858463;29;20057;-91
2023/09/16 02:00:36;;;;;;;7.88;3.13;;;14.20;76.80;;;;;;4870086;29;20124;-91
2023/09/16 02:03:04;;;;;;;7.93;2.90;;;14.20;76.70;;;;;;4863533;29;20108;-91
2023/09/16 02:05:31;;;;;;;6.53;2.63;;;14.20;76.70;;;;;;4876715;29;20495;-91
2023/09/16 02:07:59;;;;;;;7.15;2.80;;;14.20;76.70;;;;;;4876809;29;20123;-91
2023/09/16 02:10:26;;;;;;;8.45;3.45;;;14.20;76.70;;;;;;4851767;29;20140;-91
2023/09/16 02:12:53;;;;;;;8.00;3.20;;;14.10;76.90;;;;;;4876830;29;20048;-91
2023/09/16 02:15:20;;;;;;;10.17;3.13;;;14.10;77.00;;;;;;4874841;29;20049;-91
2023/09/16 02:17:48;;;;;;;7.22;3.10;;;14.00;77.10;;;;;;4869522;29;20052;-91
2023/09/16 02:20:15;;;;;;;7.38;3.15;;;14.00;77.40;;;;;;4885321;29;20078;-91
2023/09/16 02:22:44;;;;;;;7.00;2.70;;;14.00;77.40;;;;;;4870106;29;20100;-91
2023/09/16 02:25:11;;;;;;;6.03;2.88;;;14.00;77.40;;;;;;4863731;29;20056;-91
2023/09/16 02:27:41;;;;;;;8.10;3.10;;;14.00;77.50;;;;;;4851860;29;20056;-91
2023/09/16 02:30:09;;;;;;;6.70;2.60;;;14.00;77.60;;;;;;4866667;29;20507;-91
2023/09/16 02:32:36;;;;;;;6.47;3.28;;;13.90;77.70;;;;;;4868634;29;20055;-91
2023/09/16 02:35:03;;;;;;;7.53;2.78;;;13.90;77.70;;;;;;4885709;29;20525;-91
2023/09/16 02:37:30;;;;;;;9.52;3.47;;;13.90;77.60;;;;;;4885031;29;20140;-91
2023/09/16 02:39:58;;;;;;;7.57;3.37;;;13.90;77.90;;;;;;4880463;29;20049;-92
2023/09/16 02:42:25;;;;;;;7.40;3.35;;;13.90;77.80;;;;;;4878013;29;20563;-91
2023/09/16 02:44:52;;;;;;;6.70;3.30;;;14.00;77.60;;;;;;4874574;29;20053;-91
2023/09/16 02:47:22;;;;;;;8.05;3.10;;;13.90;77.60;;;;;;4879987;29;20451;-91
2023/09/16 02:49:49;;;;;;;7.00;3.30;;;13.90;77.80;;;;;;4885254;29;20078;-91
2023/09/16 02:52:18;;;;;;;7.23;3.13;;;13.90;77.70;;;;;;4878668;29;20045;-90
2023/09/16 02:54:45;;;;;;;6.93;3.67;;;13.90;77.70;;;;;;4866067;29;20052;-91
2023/09/16 02:57:12;;;;;;;6.43;2.92;;;13.90;77.80;;;;;;4853504;29;20129;-91
2023/09/16 02:59:40;;;;;;;7.55;3.30;;;13.80;78.00;;;;;;4872171;29;20052;-91
2023/09/16 03:02:08;;;;;;;6.68;3.10;;;13.80;78.10;;;;;;4850771;29;20109;-92
2023/09/16 03:04:36;;;;;;;8.10;2.87;;;13.80;78.10;;;;;;4873115;29;20045;-90
2023/09/16 03:07:03;;;;;;;6.60;3.17;;;13.70;78.10;;;;;;4858999;29;20521;-91
2023/09/16 03:09:31;;;;;;;7.30;3.50;;;13.80;78.20;;;;;;4874305;29;20144;-91
2023/09/16 03:11:58;;;;;;;7.97;3.22;;;13.80;78.20;;;;;;4879608;29;20051;-90
2023/09/16 03:14:26;;;;;;;6.20;2.88;;;13.70;78.10;;;;;;4884612;29;20056;-91
2023/09/16 03:16:55;;;;;;;7.77;3.13;;;13.60;78.40;;;;;;4868547;29;20061;-91
2023/09/16 03:19:23;;;;;;;7.85;3.17;;;13.60;78.40;;;;;;4870365;29;20131;-91
2023/09/16 03:21:50;;;;;;;10.27;3.40;;;13.60;78.50;;;;;;4877199;29;20100;-91
2023/09/16 03:24:17;;;;;;;8.13;3.20;;;13.60;78.60;;;;;;4869387;29;20499;-91
2023/09/16 03:26:44;;;;;;;6.95;3.35;;;13.60;78.60;;;;;;4879831;29;20048;-92
2023/09/16 03:29:13;;;;;;;8.10;3.30;;;13.60;78.70;;;;;;4872909;29;20075;-91
2023/09/16 03:31:40;;;;;;;8.07;3.03;;;13.60;78.70;;;;;;4868598;29;20083;-91
2023/09/16 03:34:15;;;;;;;8.18;3.33;;;13.50;78.70;;;;;;4884050;29;20139;-91
2023/09/16 03:36:44;;;;;;;6.95;3.10;;;13.50;78.70;;;;;;4883977;29;20053;-92
2023/09/16 03:39:12;;;;;;;7.65;3.40;;;13.50;78.80;;;;;;4884033;29;20048;-91
2023/09/16 03:41:39;;;;;;;7.17;3.30;;;13.60;78.70;;;;;;4866306;29;20057;-91
2023/09/16 03:44:08;;;;;;;7.20;2.92;;;13.60;78.50;;;;;;4880954;29;20111;-91
2023/09/16 03:46:35;;;;;;;8.10;2.92;;;13.60;78.20;;;;;;4884813;29;20410;-91
2023/09/16 03:49:06;;;;;;;6.95;3.20;;;13.70;78.10;;;;;;4865391;29;20419;-91
2023/09/16 03:51:39;;;;;;;8.35;2.88;;;13.70;78.00;;;;;;4870868;29;20049;-89
2023/09/16 03:54:09;;;;;;;7.00;3.27;;;13.60;78.20;;;;;;4880857;29;20487;-91
2023/09/16 03:56:36;;;;;;;7.63;3.50;;;13.60;78.20;;;;;;4872859;29;20415;-91
2023/09/16 03:59:03;;;;;;;6.85;3.13;;;13.60;78.10;;;;;;4864892;29;20048;-89
2023/09/16 04:01:31;;;;;;;8.25;2.75;;;13.60;78.10;;;;;;4865133;29;20060;-91
2023/09/16 04:03:58;;;;;;;6.68;3.00;;;13.60;77.90;;;;;;4870162;29;20108;-91
2023/09/16 04:06:26;;;;;;;7.90;2.97;;;13.50;78.20;;;;;;4859814;29;20048;-90
2023/09/16 04:08:54;;;;;;;5.72;2.85;;;13.50;78.30;;;;;;4868076;29;20060;-90
2023/09/16 04:11:21;;;;;;;7.70;3.15;;;13.50;78.40;;;;;;4857668;29;20056;-91
2023/09/16 04:13:49;;;;;;;9.70;3.58;;;13.50;78.30;;;;;;4864856;29;20073;-91
2023/09/16 04:16:16;;;;;;;8.48;3.20;;;13.60;78.10;;;;;;4849350;29;20066;-90
2023/09/16 04:18:43;;;;;;;7.27;3.33;;;13.60;78.00;;;;;;4864716;29;20073;-91
2023/09/16 04:21:10;;;;;;;6.82;3.03;;;13.60;78.20;;;;;;4864643;29;20049;-91
2023/09/16 04:23:37;;;;;;;7.10;3.30;;;13.50;78.50;;;;;;4877416;29;20100;-91
2023/09/16 04:26:08;;;;;;;8.32;3.30;;;13.50;78.60;;;;;;4868392;29;20044;-91
2023/09/16 04:28:36;;;;;;;6.90;3.13;;;13.50;78.60;;;;;;4878024;29;20074;-91
2023/09/16 04:31:04;;;;;;;9.00;3.53;;;13.50;78.70;;;;;;4868315;29;20499;-91
2023/09/16 04:33:35;;;;;;;7.85;3.42;;;13.50;78.80;;;;;;4883516;29;20059;-90
2023/09/16 04:36:04;;;;;;;7.40;3.10;;;13.50;78.80;;;;;;4875340;29;20144;-92
2023/09/16 04:38:32;;;;;;;7.15;3.30;;;13.50;78.90;;;;;;4849774;29;20057;-91
2023/09/16 04:41:00;;;;;;;7.57;3.08;;;13.50;79.00;;;;;;4878971;29;20053;-91
2023/09/16 04:43:32;;;;;;;6.60;2.83;;;13.50;79.10;;;;;;4883390;29;20048;-90
2023/09/16 04:46:00;;;;;;;7.63;3.25;;;13.40;79.10;;;;;;4882749;29;20144;-91
2023/09/16 04:48:35;;;;;;;6.82;3.53;;;13.40;79.10;;;;;;4883015;29;20087;-90
2023/09/16 04:51:03;;;;;;;6.70;3.35;;;13.50;79.10;;;;;;4867878;29;20045;-90
2023/09/16 04:53:32;;;;;;;7.35;3.38;;;13.50;79.00;;;;;;4867417;29;20052;-90
2023/09/16 04:56:09;;;;;;;6.80;3.00;;;13.40;79.10;;;;;;4883048;29;20060;-91
2023/09/16 04:58:40;;;;;;;7.57;3.00;;;13.40;79.20;;;;;;4878813;29;20437;-90
2023/09/16 05:01:07;;;;;;;7.03;2.67;;;13.40;79.30;;;;;;4864126;29;20481;-90
2023/09/16 05:03:35;;;;;;;7.70;3.33;;;13.50;79.20;;;;;;4854826;29;20088;-90
2023/09/16 05:06:03;;;;;;;7.65;3.08;;;13.50;79.20;;;;;;4871381;29;20133;-90
2023/09/16 05:08:34;;;;;;;7.80;3.10;;;13.50;79.30;;;;;;4864124;29;20140;-90
2023/09/16 05:11:03;;;;;;;7.68;3.28;;;13.50;79.30;;;;;;4853449;29;20124;-91
2023/09/16 05:13:41;;;;;;;6.82;3.00;;;13.50;79.30;;;;;;4863651;29;20045;-91
2023/09/16 05:16:08;;;;;;;7.35;3.22;;;13.50;79.20;;;;;;4861797;29;20147;-91
2023/09/16 05:18:36;;;;;;;8.18;3.00;;;13.50;79.20;;;;;;4870809;29;20049;-90
2023/09/16 05:21:06;;;;;;;7.23;3.10;;;13.60;79.00;;;;;;4869995;29;20473;-92
2023/09/16 05:23:34;;;;;;;5.88;2.70;;;13.60;79.00;;;;;;4875499;29;20529;-90
2023/09/16 05:26:09;;;;;;;7.13;3.20;;;13.60;79.00;;;;;;4867219;29;20187;-91
2023/09/16 05:28:39;;;;;;;7.93;3.75;;;13.60;79.00;;;;;;4867371;29;20052;-90
2023/09/16 05:31:07;;;;;;;9.15;3.30;;;13.70;78.90;;;;;;4862451;29;20040;-91
2023/09/16 05:33:36;;;;;;;9.33;3.20;;;13.70;79.00;;;;;;4863894;29;20136;-90
2023/09/16 05:36:04;;;;;;;7.35;3.47;;;13.70;78.90;;;;;;4881852;29;20053;-91
2023/09/16 05:38:32;;;;;;;7.13;3.38;;;13.70;78.90;;;;;;4882314;29;20052;-91
2023/09/16 05:41:00;;;;;;;7.00;2.92;;;13.80;78.80;;;;;;4873322;29;20053;-90
2023/09/16 05:43:30;;;;;;;7.57;3.00;;;13.90;78.60;;;;;;4886637;29;20136;-90
2023/09/16 05:45:58;;;;;;;5.80;2.50;;;13.90;78.70;;;;;;4884983;29;20044;-90
2023/09/16 05:48:26;;;;;;;6.93;3.10;;;14.00;78.50;;;;;;4870710;29;20133;-91
2023/09/16 05:50:56;;;;;;;8.00;3.40;;;14.00;78.30;;;;;;4869364;29;20045;-91
2023/09/16 05:53:26;;;;;;;8.88;2.90;;;14.10;78.00;;;;;;4870967;29;20045;-90
2023/09/16 05:55:57;;;;;;;7.20;3.25;;;14.10;78.10;;;;;;4883244;29;20048;-91
2023/09/16 05:58:24;;;;;;;7.77;3.37;;;14.20;78.00;;;;;;4869005;29;20048;-91
2023/09/16 06:00:56;;;;;;;7.43;3.38;;;14.30;77.80;;;;;;4854855;29;20104;-91
2023/09/16 06:03:23;;;;;;;6.07;2.47;;;14.40;77.20;;;;;;4867084;29;20081;-91
2023/09/16 06:05:57;;;;;;;6.07;2.50;;;14.50;77.20;;;;;;4866949;29;20070;-91
2023/09/16 06:08:25;;;;;;;6.68;3.20;;;14.60;77.10;;;;;;4867022;29;20053;-91
2023/09/16 06:10:52;;;;;;;6.87;3.00;;;14.70;77.20;;;;;;4866972;29;20055;-91
2023/09/16 06:13:19;;;;;;;5.90;2.60;;;14.80;76.50;;;;;;4866828;29;20049;-92
2023/09/16 06:15:46;;;;;;;6.50;3.03;;;14.90;76.00;;;;;;4848144;29;20539;-91
2023/09/16 06:18:14;;;;;;;6.80;2.60;;;15.00;76.30;;;;;;4848620;29;20062;-92
2023/09/16 06:20:41;;;;;;;6.57;3.10;;;15.10;76.20;;;;;;4848765;29;20109;-91
2023/09/16 06:23:09;;;;;;;8.17;3.07;;;15.30;75.60;;;;;;4863927;29;20060;-91
2023/09/16 06:25:37;;;;;;;6.25;2.80;;;15.30;75.50;;;;;;4848540;29;20508;-91
2023/09/16 06:28:05;;;;;;;6.80;2.72;;;15.50;75.30;;;;;;4848422;29;20084;-91
2023/09/16 06:30:35;;;;;;;6.28;2.90;;;15.50;75.00;;;;;;4863734;29;20521;-92
2023/09/16 06:33:04;;;;;;;10.05;3.10;;;15.70;75.00;;;;;;4848350;29;20050;-92
2023/09/16 06:35:31;;;;;;;6.67;2.87;;;15.80;74.60;;;;;;4848411;29;20106;-92
2023/09/16 06:37:59;;;;;;;7.00;2.75;;;15.90;74.70;;;;;;4848297;29;20061;-91
2023/09/16 06:40:27;;;;;;;9.18;3.03;;;16.00;74.50;;;;;;4867150;29;20045;-91
2023/09/16 06:42:57;;;;;;;6.65;2.70;;;16.10;74.00;;;;;;4881861;29;20082;-92
2023/09/16 06:45:28;;;;;;;6.82;3.00;;;16.30;74.10;;;;;;4866705;29;20057;-92
2023/09/16 06:47:58;;;;;;;5.80;2.03;;;16.40;73.50;;;;;;4881575;29;20491;-92
2023/09/16 06:50:25;;;;;;;5.70;2.33;;;16.60;73.60;;;;;;4878147;29;20132;-91
2023/09/16 06:52:52;;;;;;;5.72;2.33;;;16.60;72.90;;;;;;4860232;29;20045;-91
2023/09/16 06:55:19;;;;;;;6.85;2.13;;;16.80;73.70;;;;;;4879468;29;20056;-87
2023/09/16 06:57:47;;;;;;;6.28;2.28;;;16.90;72.90;;;;;;4847778;29;20050;-88
2023/09/16 07:00:15;;;;;;;7.43;2.13;;;17.00;73.20;;;;;;4859868;29;20124;-89
2023/09/16 07:02:42;;;;;;;7.47;2.20;;;17.10;72.60;;;;;;4861851;29;20173;-87
2023/09/16 07:05:10;;;;;;;6.13;1.90;;;17.20;71.80;;;;;;4874489;29;20045;-88
2023/09/16 07:07:37;;;;;;;5.22;2.13;;;17.20;71.50;;;;;;4879365;29;20056;-92
2023/09/16 07:10:05;;;;;;;6.47;1.95;;;17.30;71.70;;;;;;4882967;29;20037;-93
2023/09/16 07:12:32;;;;;;;5.80;1.80;;;17.50;71.40;;;;;;4866356;29;20499;-91
2023/09/16 07:14:59;;;;;;;5.85;2.25;;;17.60;71.70;;;;;;4879001;29;20518;-90
2023/09/16 07:17:26;;;;;;;6.72;2.00;;;17.70;70.80;;;;;;4876900;29;20056;-91
2023/09/16 07:19:53;;;;;;;5.07;1.83;;;17.80;71.10;;;;;;4855726;29;20518;-89
2023/09/16 07:22:20;;;;;;;5.82;1.92;;;18.00;70.80;;;;;;4861674;29;20124;-90
2023/09/16 07:24:47;;;;;;;6.23;1.90;;;18.10;70.60;;;;;;4879503;29;20053;-90
2023/09/16 07:27:17;;;;;;;5.88;2.17;;;18.20;70.60;;;;;;4864012;29;20084;-91
2023/09/16 07:29:44;;;;;;;6.20;1.92;;;18.30;69.10;;;;;;4871297;29;20054;-91
2023/09/16 07:32:11;;;;;;;6.32;1.88;;;18.30;69.20;;;;;;4874483;29;20100;-90
2023/09/16 07:34:38;;;;;;;6.07;2.20;;;18.50;70.40;;;;;;4879017;29;20408;-90
2023/09/16 07:37:05;;;;;;;6.40;1.90;;;18.50;69.40;;;;;;4868627;29;20049;-89
2023/09/16 07:39:32;;;;;;;5.63;2.10;;;18.70;69.30;;;;;;4874011;29;20056;-89
2023/09/16 07:41:59;;;;;;;5.93;2.35;;;18.80;69.60;;;;;;4876663;29;20057;-88
2023/09/16 07:44:26;;;;;;;7.88;2.25;;;18.90;70.30;;;;;;4877501;29;20064;-88
2023/09/16 07:46:53;;;;;;;7.28;2.30;;;19.00;69.70;;;;;;4872302;29;20045;-89
2023/09/16 07:49:21;;;;;;;6.13;2.00;;;19.10;68.70;;;;;;4877802;29;20053;-89
2023/09/16 07:52:33;;;;;;;7.78;2.25;;;19.20;69.10;;;;;;4869516;29;20402;-89
2023/09/16 07:55:00;;;;;;;5.03;2.08;;;19.30;69.30;;;;;;4875932;29;20041;-90
2023/09/16 07:57:30;;;;;;;6.72;1.90;;;19.40;68.60;;;;;;4871058;29;20049;-90
2023/09/16 07:59:57;;;;;;;6.50;2.28;;;19.50;68.30;;;;;;4865894;29;20045;-91
2023/09/16 08:02:24;;;;;;;7.07;2.40;;;19.60;68.10;;;;;;4875224;29;20037;-90
2023/09/16 08:04:51;;;;;;;7.13;2.50;;;19.60;69.90;;;;;;4855410;29;20054;-91
2023/09/16 08:07:18;;;;;;;5.65;2.33;;;19.70;70.20;;;;;;4872369;29;20078;-88
2023/09/16 08:09:45;;;;;;;8.32;2.15;;;19.80;69.50;;;;;;4880402;29;20519;-90
2023/09/16 08:12:17;;;;;;;5.97;2.30;;;19.70;69.10;;;;;;4880238;29;20045;-90
2023/09/16 08:14:44;;;;;;;5.17;2.03;;;19.80;69.00;;;;;;4880291;29;20393;-91
2023/09/16 08:17:11;;;;;;;6.68;2.00;;;19.80;69.10;;;;;;4880236;29;20063;-90
2023/09/16 08:19:38;;;;;;;7.28;2.40;;;19.90;69.90;;;;;;4880926;29;20080;-88
2023/09/16 08:22:05;;;;;;;6.43;2.40;;;20.00;69.00;;;;;;4864946;29;20049;-91
2023/09/16 08:24:34;;;;;;;5.85;2.40;;;20.10;68.70;;;;;;4881911;29;20061;-90
2023/09/16 08:27:01;;;;;;;10.57;2.20;;;20.10;68.60;;;;;;4865808;29;20097;-88
2023/09/16 08:29:28;;;;;;;7.75;2.60;;;20.20;69.10;;;;;;4864798;29;20526;-88
2023/09/16 08:31:55;;;;;;;5.65;2.60;;;20.20;68.80;;;;;;4865250;29;20093;-91
2023/09/16 08:34:22;;;;;;;4.93;2.25;;;20.30;68.30;;;;;;4880685;29;20048;-90
2023/09/16 08:36:49;;;;;;;7.70;2.50;;;20.40;68.80;;;;;;4880301;29;20053;-89
2023/09/16 08:39:16;;;;;;;8.93;2.67;;;20.50;68.40;;;;;;4879996;29;20060;-89
2023/09/16 08:42:14;;;;;;;5.43;2.33;;;20.60;68.40;;;;;;4879886;29;20097;-87
2023/09/16 08:44:45;;;;;;;6.75;2.25;;;20.60;68.60;;;;;;4879960;29;20056;-90
2023/09/16 08:47:24;;;;;;;6.40;2.50;;;20.70;68.30;;;;;;4879560;29;20053;-87
2023/09/16 08:49:56;;;;;;;7.53;2.78;;;20.70;68.00;;;;;;4879984;29;20060;-86
2023/09/16 08:52:55;;;;;;;7.00;2.27;;;20.80;68.10;;;;;;4879763;29;20045;-87
2023/09/16 08:55:32;;;;;;;5.97;2.30;;;20.90;68.40;;;;;;4861287;29;20053;-87
2023/09/16 08:58:10;;;;;;;6.43;2.47;;;20.90;68.10;;;;;;4861168;29;20054;-87
2023/09/16 09:00:38;;;;;;;6.53;2.10;;;21.00;68.40;;;;;;4845708;29;20049;-87
2023/09/16 09:03:06;;;;;;;5.53;1.83;;;21.10;67.70;;;;;;4860923;29;20088;-87
2023/09/16 09:05:35;;;;;;;6.60;2.60;;;21.10;67.10;;;;;;4845641;29;20068;-88
2023/09/16 09:08:03;;;;;;;5.90;2.35;;;21.20;67.70;;;;;;4860969;29;20084;-87
2023/09/16 09:10:32;;;;;;;5.45;2.17;;;21.20;66.50;;;;;;4860762;29;20508;-87
2023/09/16 09:13:00;;;;;;;9.13;3.28;;;21.30;66.30;;;;;;4860563;29;20052;-87
2023/09/16 09:15:28;;;;;;;7.72;2.47;;;21.40;67.90;;;;;;4847754;29;20049;-87
2023/09/16 09:17:58;;;;;;;5.73;2.27;;;21.50;67.10;;;;;;4867538;29;20045;-88
2023/09/16 09:20:27;;;;;;;6.15;2.00;;;21.50;67.70;;;;;;4867661;29;20101;-88
2023/09/16 09:22:56;;;;;;;6.03;2.28;;;21.60;67.50;;;;;;4867533;29;20500;-87
2023/09/16 09:25:27;;;;;;;5.25;2.15;;;21.60;66.00;;;;;;4867378;29;20053;-89
2023/09/16 09:27:59;;;;;;;5.55;2.33;;;21.70;66.40;;;;;;4867830;29;20101;-89
2023/09/16 09:30:29;;;;;;;5.80;2.33;;;21.70;65.60;;;;;;4852280;29;20051;-88
2023/09/16 09:32:58;;;;;;;6.30;2.60;;;21.80;64.00;;;;;;4852518;29;20534;-88
2023/09/16 09:35:26;;;;;;;6.55;2.40;;;21.80;64.60;;;;;;4852202;29;20100;-87
2023/09/16 09:37:54;;;;;;;5.88;2.15;;;21.80;64.10;;;;;;4852228;29;20056;-89
2023/09/16 09:40:21;;;;;;;6.00;2.10;;;22.00;63.40;;;;;;4852000;29;20496;-88
2023/09/16 09:42:51;;;;;;;9.80;2.40;;;22.00;63.40;;;;;;4852066;29;20047;-89
2023/09/16 09:45:20;;;;;;;7.90;2.22;;;22.10;63.00;;;;;;4852181;29;20068;-89
2023/09/16 09:47:49;;;;;;;5.32;2.10;;;22.20;62.30;;;;;;4852105;29;20508;-89
2023/09/16 09:50:18;;;;;;;6.72;2.13;;;22.20;61.90;;;;;;4866606;29;20051;-89
2023/09/16 09:52:50;;;;;;;4.95;2.03;;;22.30;60.60;;;;;;4882397;29;20403;-89
2023/09/16 09:55:19;;;;;;;5.63;2.17;;;22.30;59.70;;;;;;4882662;29;20053;-89
2023/09/16 09:57:48;;;;;;;4.47;1.95;;;22.30;61.80;;;;;;4882466;29;20507;-89
2023/09/16 10:00:18;;;;;;;5.35;2.15;;;22.40;61.40;;;;;;4882523;29;20053;-88
2023/09/16 10:02:47;;;;;;;6.82;1.92;;;22.50;60.00;;;;;;4882195;29;20053;-89
2023/09/16 10:05:21;;;;;;;6.63;2.20;;;22.50;58.20;;;;;;4882563;29;20071;-89
2023/09/16 10:07:50;;;;;;;7.07;2.43;;;22.50;57.60;;;;;;4882085;29;20085;-88
2023/09/16 10:10:21;;;;;;;7.72;2.90;;;22.60;59.50;;;;;;4882491;29;20049;-89
2023/09/16 10:12:54;;;;;;;7.40;3.33;;;22.60;61.10;;;;;;4882432;29;20041;-88
2023/09/16 10:15:37;;;;;;;6.57;2.58;;;22.70;59.80;;;;;;4881991;29;20057;-89
2023/09/16 10:18:07;;;;;;;6.38;2.65;;;22.60;60.00;;;;;;4866887;29;20045;-89
2023/09/16 10:20:39;;;;;;;7.50;2.67;;;22.70;59.40;;;;;;4882222;29;20049;-89
2023/09/16 10:23:07;;;;;;;7.10;2.33;;;22.70;60.90;;;;;;4882049;29;20096;-89
2023/09/16 10:25:35;;;;;;;7.47;3.40;;;22.70;60.30;;;;;;4881785;29;20148;-89
2023/09/16 10:28:08;;;;;;;7.43;2.60;;;22.80;60.50;;;;;;4884734;29;20044;-89
2023/09/16 10:30:36;;;;;;;6.53;2.72;;;22.90;60.10;;;;;;4870519;29;20400;-89
2023/09/16 10:33:05;;;;;;;7.77;3.07;;;22.90;59.60;;;;;;4881769;29;20516;-88
2023/09/16 10:35:37;;;;;;;6.80;2.75;;;23.00;59.60;;;;;;4881907;29;20080;-89
2023/09/16 10:38:06;;;;;;;7.32;2.58;;;22.90;59.70;;;;;;4881820;29;20049;-89
2023/09/16 10:40:34;;;;;;;7.10;2.53;;;23.00;60.50;;;;;;4881724;29;20063;-88
2023/09/16 10:43:02;;;;;;;7.35;2.88;;;23.10;61.10;;;;;;4881569;29;20790;-89
2023/09/16 10:45:33;;;;;;;8.70;2.83;;;23.10;60.00;;;;;;4881605;29;20056;-89
2023/09/16 10:48:08;;;;;;;7.38;2.92;;;23.10;59.70;;;;;;4866470;29;20045;-89
2023/09/16 10:50:37;;;;;;;7.68;3.08;;;23.20;58.90;;;;;;4881527;29;20045;-89
2023/09/16 10:53:19;;;;;;;7.90;2.70;;;23.20;59.40;;;;;;4881366;29;20049;-89
2023/09/16 10:56:01;;;;;;;6.95;2.75;;;23.20;59.30;;;;;;4881375;29;20056;-89
2023/09/16 10:58:47;;;;;;;7.07;2.60;;;23.30;60.90;;;;;;4881483;29;20053;-89
2023/09/16 11:01:26;;;;;;;6.60;2.95;;;23.40;60.00;;;;;;4881337;29;20085;-89
2023/09/16 11:04:00;;;;;;;6.60;2.70;;;23.40;60.50;;;;;;4881140;29;20072;-88
2023/09/16 11:06:28;;;;;;;8.15;3.28;;;23.50;60.80;;;;;;4881312;29;20049;-88
2023/09/16 11:08:55;;;;;;;7.20;3.10;;;23.60;60.90;;;;;;4881191;29;20045;-88
2023/09/16 11:11:23;;;;;;;7.43;3.00;;;23.70;61.40;;;;;;4881370;29;20053;-89
2023/09/16 11:13:50;;;;;;;7.03;3.00;;;23.70;60.60;;;;;;4881078;29;20037;-88
2023/09/16 11:16:20;;;;;;;7.18;3.10;;;23.80;60.30;;;;;;4881592;29;20052;-89
2023/09/16 11:18:54;;;;;;;6.93;2.80;;;23.80;59.90;;;;;;4868811;29;20048;-89
2023/09/16 11:21:24;;;;;;;8.30;3.05;;;23.90;58.60;;;;;;4884007;29;20411;-89
2023/09/16 11:23:52;;;;;;;6.67;2.80;;;23.90;60.10;;;;;;4868774;29;20048;-88
2023/09/16 11:26:22;;;;;;;7.93;2.85;;;24.00;58.50;;;;;;4868543;29;20044;-88
2023/09/16 11:28:53;;;;;;;8.30;3.47;;;24.00;58.80;;;;;;4868745;29;20519;-88
2023/09/16 11:31:20;;;;;;;8.40;3.30;;;24.00;58.60;;;;;;4866919;29;20049;-89
2023/09/16 11:33:47;;;;;;;6.95;2.97;;;24.00;57.10;;;;;;4850129;29;20049;-88
2023/09/16 11:36:17;;;;;;;6.23;2.70;;;23.90;58.60;;;;;;4865088;29;20439;-89
2023/09/16 11:38:54;;;;;;;6.40;2.83;;;24.00;59.10;;;;;;4881732;29;20056;-88
2023/09/16 11:41:21;;;;;;;6.63;3.00;;;24.10;59.30;;;;;;4883829;29;20056;-89
2023/09/16 11:43:49;;;;;;;9.02;3.40;;;24.10;58.40;;;;;;4868615;29;20060;-88
2023/09/16 11:46:16;;;;;;;7.88;3.00;;;24.10;58.90;;;;;;4868295;29;20045;-89
2023/09/16 11:48:54;;;;;;;8.47;3.27;;;24.10;58.30;;;;;;4868148;29;20045;-89
2023/09/16 11:51:25;;;;;;;6.22;2.97;;;24.10;57.80;;;;;;4867777;29;20053;-88
2023/09/16 11:53:54;;;;;;;7.70;3.50;;;24.10;56.70;;;;;;4865209;29;20095;-88
2023/09/16 11:56:26;;;;;;;6.70;2.50;;;24.20;57.10;;;;;;4874970;29;20048;-90
2023/09/16 11:58:54;;;;;;;8.20;2.88;;;24.10;57.30;;;;;;4876479;29;20143;-89
2023/09/16 12:01:31;;;;;;;6.13;2.70;;;24.20;57.40;;;;;;4868126;29;20055;-88
2023/09/16 12:07:09;;;;;;;6.25;2.50;;;24.20;57.00;;;;;;4883697;29;20060;-89
2023/09/16 12:09:37;;;;;;;6.78;2.60;;;24.40;60.10;;;;;;4883240;29;20044;-89
2023/09/16 12:12:05;;;;;;;6.78;3.00;;;24.50;57.00;;;;;;4867803;29;20041;-89
2023/09/16 12:14:32;;;;;;;7.17;2.73;;;24.60;56.00;;;;;;4883173;29;20060;-88
2023/09/16 12:17:01;;;;;;;6.97;2.97;;;24.60;56.50;;;;;;4849087;29;20072;-88
2023/09/16 12:19:28;;;;;;;8.18;3.10;;;24.60;56.00;;;;;;4864534;29;20170;-88
2023/09/16 12:21:55;;;;;;;8.85;3.22;;;24.60;55.80;;;;;;4865690;29;20056;-89
2023/09/16 12:24:24;;;;;;;6.78;2.90;;;24.50;57.20;;;;;;4880242;29;20088;-89
2023/09/16 12:26:51;;;;;;;6.27;2.63;;;24.40;56.40;;;;;;4879819;29;20403;-88
2023/09/16 12:29:19;;;;;;;6.97;2.90;;;24.40;56.90;;;;;;4879944;29;20045;-88
2023/09/16 12:31:47;;;;;;;7.03;2.45;;;24.50;57.20;;;;;;4879834;29;20045;-89
2023/09/16 12:34:18;;;;;;;7.15;2.70;;;24.60;56.20;;;;;;4864492;29;20076;-89
2023/09/16 12:36:50;;;;;;;5.43;2.33;;;24.60;56.40;;;;;;4882903;29;20048;-89
2023/09/16 12:39:22;;;;;;;5.77;2.60;;;24.50;57.20;;;;;;4882967;29;20498;-88
2023/09/16 12:41:51;;;;;;;7.90;2.88;;;24.60;56.60;;;;;;4864941;29;20060;-88
2023/09/16 12:44:39;;;;;;;6.60;2.80;;;24.70;55.10;;;;;;4864214;29;20056;-88
2023/09/16 12:47:06;;;;;;;6.13;2.72;;;24.60;55.40;;;;;;4864198;29;20052;-89
2023/09/16 12:49:34;;;;;;;6.63;2.63;;;24.60;55.80;;;;;;4864034;29;20062;-88
2023/09/16 12:52:02;;;;;;;6.30;2.40;;;24.70;55.80;;;;;;4848715;29;20059;-89
2023/09/16 12:54:31;;;;;;;5.60;2.40;;;24.70;56.70;;;;;;4878215;29;20048;-89
2023/09/16 12:57:03;;;;;;;7.45;3.20;;;24.60;56.70;;;;;;4872592;29;20053;-88
2023/09/16 12:59:30;;;;;;;6.75;2.67;;;24.60;55.90;;;;;;4863752;29;20049;-88